createdAt,value
2023-04-01T00:01:56.446Z,98165.00
2023-04-01T00:04:24.290Z,98166.00
2023-04-01T00:06:53.097Z,98173.00
2023-04-01T00:09:21.329Z,98168.00
2023-04-01T00:11:49.359Z,98172.00
2023-04-01T00:14:17.766Z,98163.00
2023-04-01T00:16:45.932Z,98162.00
2023-04-01T00:19:13.797Z,98164.00
2023-04-01T00:21:41.714Z,98157.00
2023-04-01T00:24:09.372Z,98165.00
2023-04-01T00:26:37.144Z,98164.00
2023-04-01T00:29:05.446Z,98167.00
2023-04-01T00:31:33.359Z,98170.00
2023-04-01T00:34:01.247Z,98167.00
2023-04-01T00:36:29.334Z,98161.00
2023-04-01T00:38:57.420Z,98159.00
2023-04-01T00:41:25.374Z,98160.00
2023-04-01T00:43:54.005Z,98159.00
2023-04-01T00:46:21.929Z,98161.00
2023-04-01T00:48:51.004Z,98162.00
2023-04-01T00:51:20.516Z,98154.00
2023-04-01T00:53:49.949Z,98160.00
2023-04-01T00:56:23.637Z,98156.00
2023-04-01T00:58:53.567Z,98158.00
2023-04-01T01:01:21.923Z,98156.00
2023-04-01T01:03:49.745Z,98156.00
2023-04-01T01:06:24.905Z,98147.00
2023-04-01T01:09:11.895Z,98153.00
2023-04-01T01:11:59.122Z,98154.00
2023-04-01T01:14:31.760Z,98153.00
2023-04-01T01:17:01.475Z,98157.00
2023-04-01T01:19:49.548Z,98153.00
2023-04-01T01:22:17.486Z,98153.00
2023-04-01T01:24:50.910Z,98151.00
2023-04-01T01:27:19.217Z,98150.00
2023-04-01T01:30:00.679Z,98147.00
2023-04-01T01:32:47.368Z,98155.00
2023-04-01T01:35:21.019Z,98146.00
2023-04-01T01:37:49.419Z,98147.00
2023-04-01T01:40:17.317Z,98149.00
2023-04-01T01:42:48.358Z,98152.00
2023-04-01T01:45:19.329Z,98155.00
2023-04-01T01:47:47.613Z,98150.00
2023-04-01T01:50:15.407Z,98155.00
2023-04-01T01:52:44.290Z,98152.00
2023-04-01T01:55:27.434Z,98154.00
2023-04-01T01:57:55.741Z,98155.00
2023-04-01T02:00:23.632Z,98148.00
2023-04-01T02:02:51.876Z,98153.00
2023-04-01T02:05:21.293Z,98155.00
2023-04-01T02:07:52.411Z,98152.00
2023-04-01T02:10:20.851Z,98150.00
2023-04-01T02:12:49.497Z,98154.00
2023-04-01T02:15:17.095Z,98158.00
2023-04-01T02:17:45.233Z,98156.00
2023-04-01T02:20:16.502Z,98154.00
2023-04-01T02:22:51.676Z,98158.00
2023-04-01T02:25:21.633Z,98154.00
2023-04-01T02:27:49.448Z,98157.00
2023-04-01T02:30:17.725Z,98149.00
2023-04-01T02:32:46.190Z,98156.00
2023-04-01T02:35:14.637Z,98159.00
2023-04-01T02:37:45.241Z,98156.00
2023-04-01T02:40:14.031Z,98160.00
2023-04-01T02:42:41.894Z,98160.00
2023-04-01T02:45:10.305Z,98166.00
2023-04-01T02:47:38.398Z,98156.00
2023-04-01T02:50:07.269Z,98156.00
2023-04-01T02:52:35.166Z,98166.00
2023-04-01T02:55:03.546Z,98162.00
2023-04-01T02:57:31.951Z,98163.00
2023-04-01T02:59:59.606Z,98162.00
2023-04-01T03:02:28.042Z,98166.00
2023-04-01T03:04:56.042Z,98167.00
2023-04-01T03:07:24.849Z,98170.00
2023-04-01T03:09:52.603Z,98172.00
2023-04-01T03:12:20.371Z,98170.00
2023-04-01T03:14:52.107Z,98168.00
2023-04-01T03:17:19.889Z,98174.00
2023-04-01T03:19:47.771Z,98177.00
2023-04-01T03:22:15.993Z,98177.00
2023-04-01T03:24:44.461Z,98172.00
2023-04-01T03:27:13.555Z,98181.00
2023-04-01T03:29:41.910Z,98171.00
2023-04-01T03:32:11.362Z,98174.00
2023-04-01T03:34:39.103Z,98175.00
2023-04-01T03:37:07.229Z,98173.00
2023-04-01T03:39:34.903Z,98172.00
2023-04-01T03:42:02.576Z,98180.00
2023-04-01T03:44:34.330Z,98179.00
2023-04-01T03:47:02.275Z,98178.00
2023-04-01T03:49:30.585Z,98179.00
2023-04-01T03:51:58.346Z,98187.00
2023-04-01T03:54:26.085Z,98175.00
2023-04-01T03:56:53.925Z,98181.00
2023-04-01T03:59:22.078Z,98181.00
2023-04-01T04:02:15.660Z,98187.00
2023-04-01T04:05:08.346Z,98187.00
2023-04-01T04:07:36.889Z,98189.00
2023-04-01T04:10:08.031Z,98192.00
2023-04-01T04:12:39.151Z,98189.00
2023-04-01T04:15:07.637Z,98195.00
2023-04-01T04:17:36.499Z,98194.00
2023-04-01T04:20:06.213Z,98193.00
2023-04-01T04:22:33.938Z,98195.00
2023-04-01T04:25:07.311Z,98197.00
2023-04-01T04:27:35.469Z,98204.00
2023-04-01T04:30:11.838Z,98204.00
2023-04-01T04:32:40.302Z,98200.00
2023-04-01T04:35:08.436Z,98200.00
2023-04-01T04:37:39.144Z,98206.00
2023-04-01T04:40:07.232Z,98213.00
2023-04-01T04:42:35.170Z,98210.00
2023-04-01T04:45:08.473Z,98219.00
2023-04-01T04:47:38.712Z,98216.00
2023-04-01T04:50:07.972Z,98214.00
2023-04-01T04:52:38.572Z,98208.00
2023-04-01T04:55:07.656Z,98217.00
2023-04-01T04:57:35.822Z,98215.00
2023-04-01T05:00:04.017Z,98213.00
2023-04-01T05:02:45.367Z,98219.00
2023-04-01T05:05:13.068Z,98221.00
2023-04-01T05:07:41.381Z,98219.00
2023-04-01T05:10:09.887Z,98222.00
2023-04-01T05:12:40.132Z,98223.00
2023-04-01T05:15:10.886Z,98228.00
2023-04-01T05:17:39.794Z,98233.00
2023-04-01T05:20:08.231Z,98233.00
2023-04-01T05:22:36.665Z,98230.00
2023-04-01T05:25:04.594Z,98228.00
2023-04-01T05:27:32.979Z,98231.00
2023-04-01T05:30:01.649Z,98234.00
2023-04-01T05:32:52.958Z,98239.00
2023-04-01T05:35:21.211Z,98238.00
2023-04-01T05:37:49.543Z,98233.00
2023-04-01T05:40:17.417Z,98236.00
2023-04-01T05:42:45.937Z,98235.00
2023-04-01T05:45:16.876Z,98239.00
2023-04-01T05:47:53.855Z,98246.00
2023-04-01T05:50:22.069Z,98241.00
2023-04-01T05:52:50.530Z,98244.00
2023-04-01T05:55:21.310Z,98250.00
2023-04-01T05:57:51.171Z,98247.00
2023-04-01T06:00:20.452Z,98252.00
2023-04-01T06:02:48.899Z,98248.00
2023-04-01T06:05:17.122Z,98255.00
2023-04-01T06:07:45.183Z,98260.00
2023-04-01T06:10:18.183Z,98262.00
2023-04-01T06:12:47.148Z,98250.00
2023-04-01T06:15:24.788Z,98259.00
2023-04-01T06:18:11.595Z,98265.00
2023-04-01T06:20:57.909Z,98258.00
2023-04-01T06:23:38.167Z,98261.00
2023-04-01T06:26:25.657Z,98269.00
2023-04-01T06:28:56.461Z,98268.00
2023-04-01T06:31:31.969Z,98268.00
2023-04-01T06:34:04.672Z,98272.00
2023-04-01T06:37:11.917Z,98278.00
2023-04-01T06:39:48.773Z,98280.00
2023-04-01T06:42:36.047Z,98285.00
2023-04-01T06:45:15.577Z,98288.00
2023-04-01T06:48:14.129Z,98285.00
2023-04-01T06:51:23.963Z,98287.00
2023-04-01T06:54:34.018Z,98283.00
2023-04-01T06:57:23.595Z,98272.00
2023-04-01T06:59:51.516Z,98281.00
2023-04-01T07:02:39.530Z,98285.00
2023-04-01T07:05:07.654Z,98287.00
2023-04-01T07:07:37.012Z,98285.00
2023-04-01T07:10:17.330Z,98292.00
2023-04-01T07:13:05.946Z,98292.00
2023-04-01T07:16:07.272Z,98289.00
2023-04-01T07:18:49.159Z,98295.00
2023-04-01T07:21:27.304Z,98295.00
2023-04-01T07:23:58.451Z,98301.00
2023-04-01T07:26:43.231Z,98302.00
2023-04-01T07:29:15.278Z,98298.00
2023-04-01T07:32:00.949Z,98304.00
2023-04-01T07:34:48.426Z,98307.00
2023-04-01T07:37:18.204Z,98300.00
2023-04-01T07:39:49.018Z,98304.00
2023-04-01T07:42:29.226Z,98307.00
2023-04-01T07:45:15.754Z,98302.00
2023-04-01T07:47:53.329Z,98315.00
2023-04-01T07:50:21.322Z,98317.00
2023-04-01T07:53:08.115Z,98313.00
2023-04-01T07:55:42.863Z,98317.00
2023-04-01T07:58:20.072Z,98322.00
2023-04-01T08:01:11.261Z,98326.00
2023-04-01T08:03:44.164Z,98325.00
2023-04-01T08:06:12.206Z,98330.00
2023-04-01T08:08:58.833Z,98331.00
2023-04-01T08:11:47.536Z,98336.00
2023-04-01T08:14:33.605Z,98340.00
2023-04-01T08:17:37.221Z,98342.00
2023-04-01T08:20:11.725Z,98345.00
2023-04-01T08:22:49.632Z,98346.00
2023-04-01T08:25:30.119Z,98343.00
2023-04-01T08:28:24.888Z,98349.00
2023-04-01T08:30:56.316Z,98357.00
2023-04-01T08:33:28.331Z,98358.00
2023-04-01T08:36:22.188Z,98347.00
2023-04-01T08:39:01.201Z,98359.00
2023-04-01T08:41:58.945Z,98349.00
2023-04-01T08:45:04.827Z,98354.00
2023-04-01T08:47:52.434Z,98354.00
2023-04-01T08:50:39.387Z,98358.00
2023-04-01T08:53:24.591Z,98357.00
2023-04-01T08:56:04.699Z,98350.00
2023-04-01T08:58:38.599Z,98358.00
2023-04-01T09:01:33.049Z,98359.00
2023-04-01T09:04:07.266Z,98357.00
2023-04-01T09:06:53.786Z,98363.00
2023-04-01T09:09:25.094Z,98360.00
2023-04-01T09:11:57.889Z,98370.00
2023-04-01T09:14:35.607Z,98367.00
2023-04-01T09:17:34.032Z,98363.00
2023-04-01T09:20:18.327Z,98367.00
2023-04-01T09:22:52.859Z,98368.00
2023-04-01T09:25:23.714Z,98372.00
2023-04-01T09:28:07.009Z,98370.00
2023-04-01T09:30:47.441Z,98369.00
2023-04-01T09:33:24.005Z,98374.00
2023-04-01T09:36:01.164Z,98381.00
2023-04-01T09:38:32.251Z,98385.00
2023-04-01T09:41:00.192Z,98377.00
2023-04-01T09:43:43.622Z,98387.00
2023-04-01T09:46:18.976Z,98387.00
2023-04-01T09:48:47.201Z,98388.00
2023-04-01T09:51:18.356Z,98388.00
2023-04-01T09:53:50.079Z,98395.00
2023-04-01T09:56:25.255Z,98393.00
2023-04-01T09:58:56.366Z,98400.00
2023-04-01T10:02:01.080Z,98401.00
2023-04-01T10:04:39.730Z,98404.00
2023-04-01T10:07:07.999Z,98404.00
2023-04-01T10:09:39.528Z,98405.00
2023-04-01T10:12:27.733Z,98407.00
2023-04-01T10:15:01.835Z,98399.00
2023-04-01T10:17:36.917Z,98407.00
2023-04-01T10:20:31.555Z,98399.00
2023-04-01T10:22:59.530Z,98407.00
2023-04-01T10:25:31.641Z,98413.00
2023-04-01T10:28:13.252Z,98411.00
2023-04-01T10:31:22.220Z,98417.00
2023-04-01T10:34:08.816Z,98412.00
2023-04-01T10:36:37.037Z,98405.00
2023-04-01T10:39:24.439Z,98417.00
2023-04-01T10:42:17.343Z,98414.00
2023-04-01T10:45:37.896Z,98420.00
2023-04-01T10:48:18.194Z,98412.00
2023-04-01T10:51:21.647Z,98421.00
2023-04-01T10:53:49.361Z,98417.00
2023-04-01T10:56:28.822Z,98420.00
2023-04-01T10:59:19.491Z,98423.00
2023-04-01T11:02:16.818Z,98420.00
2023-04-01T11:05:21.737Z,98422.00
2023-04-01T11:08:07.096Z,98423.00
2023-04-01T11:10:56.145Z,98431.00
2023-04-01T11:13:39.507Z,98434.00
2023-04-01T11:16:14.084Z,98433.00
2023-04-01T11:18:45.380Z,98436.00
2023-04-01T11:21:32.337Z,98437.00
2023-04-01T11:24:20.561Z,98438.00
2023-04-01T11:27:18.525Z,98441.00
2023-04-01T11:30:23.402Z,98443.00
2023-04-01T11:32:54.083Z,98448.00
2023-04-01T11:35:25.073Z,98447.00
2023-04-01T11:38:11.740Z,98440.00
2023-04-01T11:40:54.642Z,98445.00
2023-04-01T11:43:48.843Z,98452.00
2023-04-01T11:46:47.800Z,98451.00
2023-04-01T11:49:34.943Z,98454.00
2023-04-01T11:52:20.870Z,98456.00
2023-04-01T11:55:08.435Z,98464.00
2023-04-01T11:57:38.011Z,98467.00
2023-04-01T12:00:26.820Z,98457.00
2023-04-01T12:03:04.353Z,98466.00
2023-04-01T12:05:40.535Z,98467.00
2023-04-01T12:08:17.102Z,98474.00
2023-04-01T12:10:50.294Z,98471.00
2023-04-01T12:13:24.031Z,98475.00
2023-04-01T12:16:03.694Z,98480.00
2023-04-01T12:18:40.686Z,98474.00
2023-04-01T12:21:25.300Z,98481.00
2023-04-01T12:23:56.340Z,98486.00
2023-04-01T12:26:37.649Z,98481.00
2023-04-01T12:29:05.715Z,98489.00
2023-04-01T12:31:52.190Z,98491.00
2023-04-01T12:34:40.403Z,98488.00
2023-04-01T12:37:11.784Z,98493.00
2023-04-01T12:39:42.648Z,98497.00
2023-04-01T12:42:28.988Z,98494.00
2023-04-01T12:45:02.829Z,98493.00
2023-04-01T12:47:39.868Z,98490.00
2023-04-01T12:50:19.616Z,98504.00
2023-04-01T12:53:05.908Z,98503.00
2023-04-01T12:55:37.783Z,98508.00
2023-04-01T12:58:13.421Z,98508.00
2023-04-01T13:00:55.794Z,98513.00
2023-04-01T13:03:38.897Z,98517.00
2023-04-01T13:06:21.981Z,98527.00
2023-04-01T13:08:51.441Z,98518.00
2023-04-01T13:11:22.358Z,98525.00
2023-04-01T13:14:02.447Z,98534.00
2023-04-01T13:16:53.369Z,98534.00
2023-04-01T13:19:43.230Z,98541.00
2023-04-01T13:22:29.693Z,98544.00
2023-04-01T13:25:03.610Z,98537.00
2023-04-01T13:27:33.321Z,98548.00
2023-04-01T13:30:19.939Z,98551.00
2023-04-01T13:32:50.932Z,98551.00
2023-04-01T13:35:24.984Z,98564.00
2023-04-01T13:38:04.612Z,98549.00
2023-04-01T13:40:33.009Z,98557.00
2023-04-01T13:43:04.958Z,98555.00
2023-04-01T13:45:50.170Z,98558.00
2023-04-01T13:48:36.774Z,98560.00
2023-04-01T13:51:23.184Z,98566.00
2023-04-01T13:54:26.506Z,98571.00
2023-04-01T13:57:09.630Z,98568.00
2023-04-01T13:59:40.585Z,98568.00
2023-04-01T14:02:22.381Z,98569.00
2023-04-01T14:05:08.702Z,98571.00
2023-04-01T14:07:41.364Z,98573.00
2023-04-01T14:10:29.255Z,98579.00
2023-04-01T14:13:13.713Z,98576.00
2023-04-01T14:15:43.424Z,98581.00
2023-04-01T14:18:15.278Z,98583.00
2023-04-01T14:20:48.046Z,98590.00
2023-04-01T14:23:22.647Z,98584.00
2023-04-01T14:25:50.518Z,98590.00
2023-04-01T14:28:36.849Z,98591.00
2023-04-01T14:31:04.505Z,98596.00
2023-04-01T14:33:35.156Z,98595.00
2023-04-01T14:36:25.454Z,98593.00
2023-04-01T14:38:53.116Z,98603.00
2023-04-01T14:41:41.320Z,98601.00
2023-04-01T14:44:12.388Z,98609.00
2023-04-01T14:46:58.757Z,98615.00
2023-04-01T14:49:39.626Z,98615.00
2023-04-01T14:52:11.446Z,98618.00
2023-04-01T14:54:40.437Z,98625.00
2023-04-01T14:57:15.306Z,98622.00
2023-04-01T14:59:50.120Z,98633.00
2023-04-01T15:02:23.842Z,98634.00
2023-04-01T15:04:54.820Z,98634.00
2023-04-01T15:07:44.363Z,98642.00
2023-04-01T15:10:20.983Z,98650.00
2023-04-01T15:13:07.125Z,98650.00
2023-04-01T15:15:46.822Z,98661.00
2023-04-01T15:18:14.637Z,98666.00
2023-04-01T15:20:49.174Z,98662.00
2023-04-01T15:23:36.159Z,98671.00
2023-04-01T15:26:15.216Z,98674.00
2023-04-01T15:28:45.924Z,98680.00
2023-04-01T15:31:17.466Z,98691.00
2023-04-01T15:33:48.282Z,98689.00
2023-04-01T15:36:16.113Z,98693.00
2023-04-01T15:38:46.247Z,98695.00
2023-04-01T15:41:23.867Z,98692.00
2023-04-01T15:43:53.541Z,98704.00
2023-04-01T15:46:56.753Z,98706.00
2023-04-01T15:49:44.502Z,98705.00
2023-04-01T15:52:14.887Z,98717.00
2023-04-01T15:55:02.134Z,98718.00
2023-04-01T15:57:32.526Z,98718.00
2023-04-01T16:00:06.340Z,98731.00
2023-04-01T16:02:46.810Z,98729.00
2023-04-01T16:05:26.534Z,98740.00
2023-04-01T16:08:15.931Z,98753.00
2023-04-01T16:10:46.542Z,98757.00
2023-04-01T16:13:49.062Z,98747.00
2023-04-01T16:16:35.607Z,98747.00
2023-04-01T16:19:15.477Z,98763.00
2023-04-01T16:21:45.101Z,98767.00
2023-04-01T16:24:15.855Z,98773.00
2023-04-01T16:26:46.729Z,98771.00
2023-04-01T16:29:33.315Z,98778.00
2023-04-01T16:32:06.291Z,98785.00
2023-04-01T16:34:42.896Z,98780.00
2023-04-01T16:37:19.858Z,98799.00
2023-04-01T16:39:51.352Z,98808.00
2023-04-01T16:42:49.022Z,98807.00
2023-04-01T16:45:36.980Z,98820.00
2023-04-01T16:48:11.803Z,98820.00
2023-04-01T16:50:59.860Z,98828.00
2023-04-01T16:53:36.408Z,98829.00
2023-04-01T16:56:06.250Z,98834.00
2023-04-01T16:58:38.627Z,98840.00
2023-04-01T17:01:17.810Z,98845.00
2023-04-01T17:03:46.524Z,98852.00
2023-04-01T17:06:30.723Z,98853.00
2023-04-01T17:09:32.116Z,98859.00
2023-04-01T17:12:21.232Z,98869.00
2023-04-01T17:15:23.270Z,98867.00
2023-04-01T17:18:04.277Z,98878.00
2023-04-01T17:20:37.247Z,98888.00
2023-04-01T17:23:10.929Z,98884.00
2023-04-01T17:25:57.071Z,98896.00
2023-04-01T17:28:44.577Z,98901.00
2023-04-01T17:31:12.391Z,98908.00
2023-04-01T17:34:00.282Z,98916.00
2023-04-01T17:36:33.871Z,98920.00
2023-04-01T17:39:20.618Z,98922.00
2023-04-01T17:41:49.769Z,98923.00
2023-04-01T17:44:20.526Z,98937.00
2023-04-01T17:47:07.045Z,98941.00
2023-04-01T17:49:41.828Z,98941.00
2023-04-01T17:52:28.148Z,98948.00
2023-04-01T17:55:14.404Z,98963.00
2023-04-01T17:57:51.884Z,98960.00
2023-04-01T18:00:22.973Z,98974.00
2023-04-01T18:03:10.675Z,98983.00
2023-04-01T18:05:41.213Z,98986.00
2023-04-01T18:08:15.000Z,98987.00
2023-04-01T18:10:47.929Z,99001.00
2023-04-01T18:13:38.004Z,99000.00
2023-04-01T18:16:24.447Z,99007.00
2023-04-01T18:19:10.912Z,99018.00
2023-04-01T18:21:46.976Z,99017.00
2023-04-01T18:24:14.641Z,99024.00
2023-04-01T18:26:43.592Z,99023.00
2023-04-01T18:29:19.172Z,99035.00
2023-04-01T18:31:53.137Z,99042.00
2023-04-01T18:34:46.144Z,99043.00
2023-04-01T18:37:18.027Z,99056.00
2023-04-01T18:39:49.490Z,99063.00
2023-04-01T18:42:26.211Z,99064.00
2023-04-01T18:44:55.816Z,99071.00
2023-04-01T18:47:23.472Z,99079.00
2023-04-01T18:50:01.164Z,99082.00
2023-04-01T18:52:39.440Z,99088.00
2023-04-01T18:55:30.672Z,99099.00
2023-04-01T18:58:07.893Z,99093.00
2023-04-01T19:00:54.288Z,99114.00
2023-04-01T19:03:22.395Z,99111.00
2023-04-01T19:05:51.898Z,99125.00
2023-04-01T19:08:30.239Z,99127.00
2023-04-01T19:11:00.168Z,99131.00
2023-04-01T19:13:33.852Z,99138.00
2023-04-01T19:16:05.855Z,99144.00
2023-04-01T19:18:33.766Z,99141.00
2023-04-01T19:21:03.134Z,99148.00
2023-04-01T19:24:00.590Z,99148.00
2023-04-01T19:26:29.603Z,99156.00
2023-04-01T19:28:59.023Z,99158.00
2023-04-01T19:31:26.622Z,99166.00
2023-04-01T19:34:00.441Z,99179.00
2023-04-01T19:36:33.224Z,99179.00
2023-04-01T19:39:21.205Z,99188.00
2023-04-01T19:41:54.707Z,99191.00
2023-04-01T19:44:29.970Z,99193.00
2023-04-01T19:47:24.117Z,99199.00
2023-04-01T19:50:01.067Z,99208.00
2023-04-01T19:52:32.768Z,99210.00
2023-04-01T19:55:06.425Z,99221.00
2023-04-01T19:57:49.443Z,99226.00
2023-04-01T20:00:24.860Z,99226.00
2023-04-01T20:03:28.104Z,99237.00
2023-04-01T20:05:58.395Z,99244.00
2023-04-01T20:08:41.767Z,99257.00
2023-04-01T20:11:22.148Z,99261.00
2023-04-01T20:14:08.385Z,99271.00
2023-04-01T20:16:46.386Z,99285.00
2023-04-01T20:19:14.284Z,99279.00
2023-04-01T20:21:45.242Z,99285.00
2023-04-01T20:24:15.790Z,99294.00
2023-04-01T20:26:54.861Z,99297.00
2023-04-01T20:29:37.711Z,99304.00
2023-04-01T20:32:07.176Z,99320.00
2023-04-01T20:34:46.977Z,99323.00
2023-04-01T20:37:23.218Z,99330.00
2023-04-01T20:39:58.757Z,99334.00
2023-04-01T20:42:40.633Z,99340.00
2023-04-01T20:45:20.237Z,99333.00
2023-04-01T20:47:48.019Z,99349.00
2023-04-01T20:50:22.014Z,99342.00
2023-04-01T20:52:59.312Z,99340.00
2023-04-01T20:55:32.140Z,99351.00
2023-04-01T20:58:03.012Z,99362.00
2023-04-01T21:00:49.343Z,99369.00
2023-04-01T21:03:35.636Z,99372.00
2023-04-01T21:06:03.642Z,99376.00
2023-04-01T21:08:41.165Z,99375.00
2023-04-01T21:11:17.857Z,99386.00
2023-04-01T21:13:49.393Z,99395.00
2023-04-01T21:16:36.070Z,99393.00
2023-04-01T21:19:22.660Z,99400.00
2023-04-01T21:22:09.255Z,99408.00
2023-04-01T21:24:49.094Z,99414.00
2023-04-01T21:27:21.081Z,99424.00
2023-04-01T21:29:54.952Z,99427.00
2023-04-01T21:32:33.506Z,99429.00
2023-04-01T21:35:03.966Z,99440.00
2023-04-01T21:37:31.548Z,99445.00
2023-04-01T21:40:05.433Z,99450.00
2023-04-01T21:42:45.800Z,99460.00
2023-04-01T21:45:22.641Z,99468.00
2023-04-01T21:48:08.979Z,99476.00
2023-04-01T21:51:08.393Z,99478.00
2023-04-01T21:53:40.699Z,99489.00
2023-04-01T21:56:11.676Z,99494.00
2023-04-01T21:58:42.556Z,99491.00
2023-04-01T22:01:28.381Z,99505.00
2023-04-01T22:04:12.100Z,99506.00
2023-04-01T22:06:42.176Z,99519.00
2023-04-01T22:09:14.328Z,99515.00
2023-04-01T22:11:55.631Z,99525.00
2023-04-01T22:14:27.550Z,99528.00
2023-04-01T22:16:58.089Z,99537.00
2023-04-01T22:19:28.675Z,99538.00
2023-04-01T22:22:02.594Z,99549.00
2023-04-01T22:24:42.393Z,99541.00
2023-04-01T22:27:28.369Z,99543.00
2023-04-01T22:30:08.312Z,99550.00
2023-04-01T22:32:36.874Z,99566.00
2023-04-01T22:35:09.065Z,99567.00
2023-04-01T22:37:52.243Z,99570.00
2023-04-01T22:40:22.767Z,99575.00
2023-04-01T22:43:10.898Z,99575.00
2023-04-01T22:45:41.962Z,99582.00
2023-04-01T22:48:12.856Z,99582.00
2023-04-01T22:50:40.703Z,99587.00
2023-04-01T22:53:17.762Z,99598.00
2023-04-01T22:55:52.799Z,99601.00
2023-04-01T22:58:32.125Z,99601.00
2023-04-01T23:01:01.475Z,99606.00
2023-04-01T23:03:42.261Z,99614.00
2023-04-01T23:06:36.580Z,99618.00
2023-04-01T23:09:06.620Z,99617.00
2023-04-01T23:11:53.224Z,99628.00
2023-04-01T23:14:27.945Z,99634.00
2023-04-01T23:16:56.404Z,99630.00
2023-04-01T23:19:39.829Z,99632.00
2023-04-01T23:22:10.695Z,99637.00
2023-04-01T23:24:59.258Z,99635.00
2023-04-01T23:27:29.775Z,99649.00
2023-04-01T23:29:57.542Z,99649.00
2023-04-01T23:32:27.466Z,99656.00
2023-04-01T23:34:56.261Z,99657.00
2023-04-01T23:37:24.065Z,99664.00
2023-04-01T23:39:52.726Z,99669.00
2023-04-01T23:42:21.034Z,99669.00
2023-04-01T23:44:49.775Z,99672.00
2023-04-01T23:47:19.455Z,99686.00
2023-04-01T23:49:50.927Z,99688.00
2023-04-01T23:52:28.171Z,99688.00
2023-04-01T23:54:58.561Z,99690.00
2023-04-01T23:57:36.235Z,99691.00
